Time;durP1;ratioP1;P1;durP2;ratioP2;P2;SDS_P1;SDS_P2;PMS_P1;PMS_P2;Temp;Humidity;BMP_temperature;BMP_pressure;BME280_temperature;BME280_humidity;BME280_pressure;Samples;Min_cycle;Max_cycle;Signal;HPM_P1;HPM_P2
2024/03/10 00:02:10;;;;;;;10.38;5.03;;;10.40;99.90;;;;;;5027140;28;20048;-90
2024/03/10 00:04:35;;;;;;;12.32;5.50;;;10.40;99.90;;;;;;5027116;28;20017;-90
2024/03/10 00:07:01;;;;;;;9.82;4.95;;;10.40;99.90;;;;;;5019715;28;20025;-91
2024/03/10 00:09:26;;;;;;;9.95;5.47;;;10.50;99.90;;;;;;5016467;28;20040;-90
2024/03/10 00:11:52;;;;;;;11.02;4.68;;;10.40;99.90;;;;;;5016237;28;20450;-90
2024/03/10 00:14:19;;;;;;;11.02;5.90;;;10.40;99.90;;;;;;5028301;28;20033;-90
2024/03/10 00:16:45;;;;;;;8.38;4.78;;;10.40;99.90;;;;;;5025867;28;20009;-90
2024/03/10 00:19:11;;;;;;;9.40;4.85;;;10.40;99.90;;;;;;5041586;28;20077;-90
2024/03/10 00:21:37;;;;;;;8.52;4.40;;;10.40;99.90;;;;;;5030142;28;20017;-90
2024/03/10 00:24:04;;;;;;;14.48;4.63;;;10.40;99.90;;;;;;5007272;28;20116;-90
2024/03/10 00:26:30;;;;;;;7.15;4.40;;;10.40;99.90;;;;;;5013099;28;20033;-88
2024/03/10 00:28:55;;;;;;;7.63;4.57;;;10.40;99.90;;;;;;5019912;28;20036;-90
2024/03/10 00:31:21;;;;;;;11.48;5.28;;;10.40;99.90;;;;;;5011160;28;20539;-90
2024/03/10 00:33:46;;;;;;;19.10;5.25;;;10.40;99.90;;;;;;5021367;28;20029;-91
2024/03/10 00:36:12;;;;;;;9.98;5.03;;;10.40;99.90;;;;;;5018698;28;20021;-89
2024/03/10 00:38:37;;;;;;;12.07;5.22;;;10.40;99.90;;;;;;5007651;28;20033;-92
2024/03/10 00:41:04;;;;;;;12.23;5.43;;;10.40;99.90;;;;;;5020369;28;20026;-91
2024/03/10 00:43:30;;;;;;;8.13;4.93;;;10.40;99.90;;;;;;5002846;28;20025;-90
2024/03/10 00:45:55;;;;;;;13.00;5.18;;;10.40;99.90;;;;;;5033472;28;20028;-89
2024/03/10 00:48:21;;;;;;;12.57;5.32;;;10.50;99.90;;;;;;5017165;28;20680;-89
2024/03/10 00:50:47;;;;;;;9.32;4.93;;;10.40;99.90;;;;;;5011559;28;20033;-91
2024/03/10 00:53:13;;;;;;;8.02;4.45;;;10.40;99.90;;;;;;5005640;28;20037;-91
2024/03/10 00:55:39;;;;;;;11.43;5.35;;;10.40;99.90;;;;;;5031116;28;20025;-91
2024/03/10 00:58:04;;;;;;;9.00;4.78;;;10.40;99.90;;;;;;5012818;28;20082;-90
2024/03/10 01:00:32;;;;;;;10.30;4.38;;;10.40;99.90;;;;;;5016506;28;20026;-91
2024/03/10 01:02:58;;;;;;;9.88;5.22;;;10.40;99.90;;;;;;5009846;28;20026;-90
2024/03/10 01:05:24;;;;;;;12.23;4.90;;;10.40;99.90;;;;;;5007187;28;20026;-89
2024/03/10 01:07:49;;;;;;;13.02;5.10;;;10.40;99.90;;;;;;5019640;28;20029;-90
2024/03/10 01:10:15;;;;;;;11.57;4.75;;;10.40;99.90;;;;;;5006629;28;20026;-90
2024/03/10 01:12:41;;;;;;;9.10;4.68;;;10.40;99.90;;;;;;5007915;28;20026;-91
2024/03/10 01:15:07;;;;;;;8.93;4.80;;;10.40;99.90;;;;;;5021434;28;20041;-91
2024/03/10 01:17:33;;;;;;;14.40;5.32;;;10.40;99.90;;;;;;5045252;28;20027;-91
2024/03/10 01:20:00;;;;;;;10.93;4.88;;;10.40;99.90;;;;;;5007156;28;20021;-91
2024/03/10 01:22:26;;;;;;;8.50;4.70;;;10.40;99.90;;;;;;5019139;28;20035;-90
2024/03/10 01:24:51;;;;;;;10.82;4.40;;;10.40;99.90;;;;;;5013382;28;20117;-90
2024/03/10 01:27:17;;;;;;;9.70;4.28;;;10.40;99.90;;;;;;5032706;28;20029;-90
2024/03/10 01:29:44;;;;;;;11.45;5.13;;;10.40;99.90;;;;;;5013483;28;20060;-90
2024/03/10 01:32:09;;;;;;;9.38;4.75;;;10.50;99.90;;;;;;5003005;28;20038;-91
2024/03/10 01:34:36;;;;;;;9.80;4.50;;;10.40;99.90;;;;;;5011303;28;20032;-91
2024/03/10 01:37:02;;;;;;;8.05;4.47;;;10.40;99.90;;;;;;5007633;28;20018;-90
2024/03/10 01:39:27;;;;;;;8.15;4.20;;;10.40;99.90;;;;;;5018668;28;20153;-90
2024/03/10 01:41:54;;;;;;;18.38;4.45;;;10.40;99.90;;;;;;5004681;28;20116;-90
2024/03/10 01:44:20;;;;;;;9.77;4.50;;;10.40;99.90;;;;;;5015004;28;20453;-90
2024/03/10 01:46:47;;;;;;;11.02;5.18;;;10.40;99.90;;;;;;5011551;28;20025;-90
2024/03/10 01:49:13;;;;;;;11.10;5.13;;;10.40;99.90;;;;;;5007650;28;20026;-90
2024/03/10 01:51:41;;;;;;;10.13;4.90;;;10.40;99.90;;;;;;5025595;28;20049;-90
2024/03/10 01:54:10;;;;;;;11.70;4.25;;;10.40;99.90;;;;;;5024951;28;20080;-91
2024/03/10 01:56:37;;;;;;;9.05;4.82;;;10.40;99.90;;;;;;5025299;28;20021;-89
2024/03/10 01:59:04;;;;;;;12.20;4.82;;;10.40;99.90;;;;;;5023684;28;20033;-90
2024/03/10 02:01:32;;;;;;;9.32;4.82;;;10.40;99.90;;;;;;5015587;28;20018;-91
2024/03/10 02:03:58;;;;;;;8.75;4.85;;;10.40;99.90;;;;;;5022323;28;20032;-91
2024/03/10 02:06:25;;;;;;;10.05;4.75;;;10.40;99.90;;;;;;5038300;28;20014;-91
2024/03/10 02:08:51;;;;;;;14.23;4.82;;;10.40;99.90;;;;;;5017773;28;20056;-92
2024/03/10 02:11:20;;;;;;;8.93;4.90;;;10.40;99.90;;;;;;5031707;28;20022;-91
2024/03/10 02:13:46;;;;;;;8.63;4.65;;;10.40;99.90;;;;;;5025708;28;20049;-91
2024/03/10 02:16:11;;;;;;;12.82;4.00;;;10.40;99.90;;;;;;5017096;28;20033;-91
2024/03/10 02:18:38;;;;;;;9.35;4.68;;;10.40;99.90;;;;;;5009575;28;20025;-90
2024/03/10 02:21:04;;;;;;;7.10;4.47;;;10.40;99.90;;;;;;5019409;28;20045;-90
2024/03/10 02:23:40;;;;;;;8.27;4.75;;;10.40;99.90;;;;;;5010160;28;20030;-91
2024/03/10 02:26:07;;;;;;;7.20;4.35;;;10.30;99.90;;;;;;5025926;28;20104;-90
2024/03/10 02:28:46;;;;;;;9.55;4.43;;;10.30;99.90;;;;;;5006302;28;20102;-91
2024/03/10 02:47:37;;;;;;;8.40;4.57;;;10.30;99.90;;;;;;5028726;28;20036;-90
2024/03/10 02:50:05;;;;;;;13.35;4.82;;;10.30;99.90;;;;;;5013911;28;20022;-90
2024/03/10 02:52:31;;;;;;;10.02;4.20;;;10.30;99.90;;;;;;5007886;28;20487;-90
2024/03/10 02:54:57;;;;;;;8.10;4.35;;;10.40;99.90;;;;;;5013094;28;20551;-90
2024/03/10 02:57:22;;;;;;;9.00;4.45;;;10.30;99.90;;;;;;5023844;28;20108;-91
2024/03/10 02:59:49;;;;;;;8.57;4.70;;;10.40;99.90;;;;;;5039406;28;20112;-90
2024/03/10 03:02:18;;;;;;;8.25;4.22;;;10.30;99.90;;;;;;5034331;28;20033;-90
2024/03/10 03:04:45;;;;;;;8.83;4.63;;;10.30;99.90;;;;;;5028407;28;20017;-91
2024/03/10 03:07:10;;;;;;;8.57;4.53;;;10.30;99.90;;;;;;5017175;28;20298;-90
2024/03/10 03:09:37;;;;;;;11.88;4.60;;;10.30;99.90;;;;;;5005442;28;20092;-91
2024/03/10 03:12:03;;;;;;;8.55;4.72;;;10.30;99.90;;;;;;5036121;28;20638;-92
2024/03/10 03:14:29;;;;;;;6.65;4.45;;;10.30;99.90;;;;;;5010449;28;20029;-90
2024/03/10 03:16:54;;;;;;;9.95;4.63;;;10.30;99.90;;;;;;5015873;28;20021;-91
2024/03/10 03:19:20;;;;;;;17.75;5.63;;;10.30;99.90;;;;;;5032318;28;20021;-92
2024/03/10 03:21:45;;;;;;;8.02;3.92;;;10.30;99.90;;;;;;5032935;28;20025;-90
2024/03/10 03:24:13;;;;;;;7.90;3.92;;;10.30;99.90;;;;;;5031166;28;20021;-90
2024/03/10 03:26:39;;;;;;;8.05;4.40;;;10.30;99.90;;;;;;5024637;28;20017;-90
2024/03/10 03:29:05;;;;;;;6.13;3.80;;;10.30;99.90;;;;;;5012331;28;20037;-90
2024/03/10 03:31:33;;;;;;;9.05;4.47;;;10.30;99.90;;;;;;5009658;28;20153;-90
2024/03/10 03:33:59;;;;;;;6.75;4.05;;;10.30;99.90;;;;;;5009614;28;20018;-90
2024/03/10 03:36:25;;;;;;;7.68;4.40;;;10.30;99.90;;;;;;5012372;28;20067;-91
2024/03/10 03:38:51;;;;;;;6.28;3.80;;;10.30;99.90;;;;;;5031597;28;20020;-89
2024/03/10 03:41:16;;;;;;;8.93;4.43;;;10.30;99.90;;;;;;5011338;28;20014;-89
2024/03/10 03:43:42;;;;;;;11.18;4.32;;;10.30;99.90;;;;;;5008816;28;20423;-90
2024/03/10 03:46:08;;;;;;;6.10;3.95;;;10.30;99.90;;;;;;5033767;28;20057;-90
2024/03/10 03:48:34;;;;;;;16.48;4.28;;;10.30;99.90;;;;;;5002294;28;20046;-91
2024/03/10 03:51:00;;;;;;;6.90;3.88;;;10.30;99.90;;;;;;5009673;28;20545;-90
2024/03/10 03:53:25;;;;;;;6.15;3.38;;;10.30;99.90;;;;;;5013980;28;20022;-90
2024/03/10 03:55:51;;;;;;;8.50;4.43;;;10.30;99.90;;;;;;5000276;28;20021;-91
2024/03/10 03:58:16;;;;;;;10.02;4.43;;;10.30;99.90;;;;;;5026519;28;20028;-90
2024/03/10 04:00:43;;;;;;;5.97;3.97;;;10.30;99.90;;;;;;5015692;28;20028;-90
2024/03/10 04:03:09;;;;;;;7.68;4.10;;;10.30;99.90;;;;;;5025850;28;20022;-91
2024/03/10 04:05:35;;;;;;;7.05;4.13;;;10.30;99.90;;;;;;5012474;28;20065;-91
2024/03/10 04:08:01;;;;;;;7.90;4.35;;;10.30;99.90;;;;;;5001192;28;20578;-90
2024/03/10 04:10:27;;;;;;;9.65;4.10;;;10.30;99.90;;;;;;5009856;28;20025;-90
2024/03/10 04:12:53;;;;;;;6.93;3.47;;;10.30;99.90;;;;;;5006097;28;20044;-91
2024/03/10 04:15:19;;;;;;;6.53;4.00;;;10.30;99.90;;;;;;5010428;28;20491;-90
2024/03/10 04:17:46;;;;;;;6.28;4.05;;;10.20;99.90;;;;;;5003335;28;20029;-90
2024/03/10 04:20:13;;;;;;;10.85;3.58;;;10.30;99.90;;;;;;5013626;28;20018;-90
2024/03/10 04:22:39;;;;;;;5.97;3.67;;;10.30;99.90;;;;;;5022465;28;20112;-91
2024/03/10 04:25:07;;;;;;;7.05;3.88;;;10.30;99.90;;;;;;5008481;28;20092;-90
2024/03/10 04:27:35;;;;;;;11.95;3.85;;;10.30;99.90;;;;;;5002538;28;20049;-90
2024/03/10 04:30:04;;;;;;;5.57;3.47;;;10.30;99.90;;;;;;5007274;28;20029;-90
2024/03/10 04:32:30;;;;;;;9.63;3.70;;;10.30;99.90;;;;;;5017618;28;20056;-92
2024/03/10 04:34:56;;;;;;;6.97;3.20;;;10.20;99.90;;;;;;5010802;28;20094;-91
2024/03/10 04:37:22;;;;;;;5.75;3.67;;;10.20;99.90;;;;;;5026087;28;20014;-91
2024/03/10 04:39:48;;;;;;;5.72;3.47;;;10.20;99.90;;;;;;5016083;28;20494;-91
2024/03/10 04:42:15;;;;;;;5.28;3.17;;;10.20;99.90;;;;;;5017174;28;20438;-90
2024/03/10 04:44:41;;;;;;;7.25;3.38;;;10.20;99.90;;;;;;5012989;28;20017;-92
2024/03/10 04:47:07;;;;;;;5.97;3.40;;;10.20;99.90;;;;;;5022109;28;20044;-89
2024/03/10 04:49:33;;;;;;;8.13;3.83;;;10.20;99.90;;;;;;5012656;28;20033;-90
2024/03/10 04:52:00;;;;;;;6.72;3.85;;;10.20;99.90;;;;;;5007930;28;20732;-90
2024/03/10 04:54:26;;;;;;;6.38;3.67;;;10.20;99.90;;;;;;5011685;28;20029;-90
2024/03/10 04:56:53;;;;;;;7.57;3.95;;;10.20;99.90;;;;;;5012768;28;20022;-91
2024/03/10 04:59:19;;;;;;;9.48;3.50;;;10.20;99.90;;;;;;5028416;28;20032;-90
2024/03/10 05:01:45;;;;;;;6.47;3.42;;;10.20;99.90;;;;;;5019321;28;20403;-91
2024/03/10 05:04:14;;;;;;;9.07;4.25;;;10.20;99.90;;;;;;4997331;28;20021;-89
2024/03/10 05:06:39;;;;;;;10.60;3.58;;;10.20;99.90;;;;;;5008961;28;20029;-89
2024/03/10 05:09:05;;;;;;;7.05;3.40;;;10.20;99.90;;;;;;5017163;28;20402;-91
2024/03/10 05:11:30;;;;;;;7.22;3.10;;;10.20;99.90;;;;;;5029141;28;20049;-90
2024/03/10 05:13:57;;;;;;;6.38;3.20;;;10.20;99.90;;;;;;5002636;28;20026;-90
2024/03/10 05:16:23;;;;;;;5.55;3.20;;;10.20;99.90;;;;;;5001334;28;20692;-91
2024/03/10 05:18:49;;;;;;;6.10;3.03;;;10.20;99.90;;;;;;5014871;28;20017;-90
2024/03/10 05:21:14;;;;;;;8.30;3.58;;;10.20;99.90;;;;;;5019594;28;20056;-90
2024/03/10 05:23:40;;;;;;;5.88;2.78;;;10.20;99.90;;;;;;5005201;28;20066;-92
2024/03/10 05:26:05;;;;;;;9.20;3.28;;;10.20;99.90;;;;;;4998251;28;20104;-91
2024/03/10 05:28:32;;;;;;;4.53;2.92;;;10.20;99.90;;;;;;5013805;28;20036;-91
2024/03/10 05:30:57;;;;;;;5.47;3.13;;;10.20;99.90;;;;;;5016490;28;20030;-91
2024/03/10 05:33:23;;;;;;;4.35;3.10;;;10.20;99.90;;;;;;5013146;28;20058;-91
2024/03/10 05:35:49;;;;;;;7.63;2.55;;;10.20;99.90;;;;;;5017619;28;20068;-92
2024/03/10 05:38:16;;;;;;;7.30;3.50;;;10.20;99.90;;;;;;5015160;28;20025;-91
2024/03/10 05:40:41;;;;;;;6.10;3.10;;;10.20;99.90;;;;;;5019041;28;20015;-91
2024/03/10 05:43:08;;;;;;;4.75;3.05;;;10.20;99.90;;;;;;5020462;28;20040;-91
2024/03/10 05:45:33;;;;;;;5.45;3.28;;;10.20;99.90;;;;;;5022435;28;20014;-91
2024/03/10 05:47:59;;;;;;;7.10;3.33;;;10.20;99.90;;;;;;5010634;28;20028;-90
2024/03/10 05:50:25;;;;;;;8.75;2.40;;;10.20;99.90;;;;;;5029271;28;20021;-89
2024/03/10 05:52:51;;;;;;;5.72;2.95;;;10.20;99.90;;;;;;5016243;28;20022;-92
2024/03/10 05:55:17;;;;;;;5.00;3.00;;;10.20;99.90;;;;;;5012733;28;20113;-91
2024/03/10 05:57:42;;;;;;;4.55;2.97;;;10.20;99.90;;;;;;5014395;28;20030;-91
2024/03/10 06:00:14;;;;;;;5.47;2.80;;;10.20;99.90;;;;;;5017676;28;20116;-91
2024/03/10 06:02:41;;;;;;;5.05;2.63;;;10.20;99.90;;;;;;5003341;28;20050;-90
2024/03/10 06:05:08;;;;;;;5.85;2.88;;;10.20;99.90;;;;;;5010198;28;20022;-89
2024/03/10 06:07:34;;;;;;;9.80;2.95;;;10.20;99.90;;;;;;5027637;28;20515;-90
2024/03/10 06:09:59;;;;;;;3.55;2.50;;;10.20;99.90;;;;;;5005011;28;20030;-90
2024/03/10 06:12:25;;;;;;;4.68;2.72;;;10.20;99.90;;;;;;5024144;28;20081;-90
2024/03/10 06:14:50;;;;;;;3.50;2.17;;;10.20;99.90;;;;;;5013118;28;20026;-90
2024/03/10 06:17:16;;;;;;;4.60;2.80;;;10.20;99.90;;;;;;5007969;28;20538;-91
2024/03/10 06:25:27;;;;;;;3.85;2.70;;;10.20;99.90;;;;;;5020501;28;20045;-90
2024/03/10 06:27:56;;;;;;;5.57;2.78;;;10.20;99.90;;;;;;5006457;28;20033;-91
2024/03/10 06:30:23;;;;;;;5.47;2.50;;;10.20;99.90;;;;;;5034445;28;20017;-91
2024/03/10 06:32:49;;;;;;;3.85;2.67;;;10.20;99.90;;;;;;5035245;28;20096;-91
2024/03/10 06:35:16;;;;;;;6.47;2.45;;;10.20;99.90;;;;;;5016888;28;20026;-90
2024/03/10 06:37:48;;;;;;;3.13;2.53;;;10.20;99.90;;;;;;5029639;28;20018;-90
2024/03/10 06:40:14;;;;;;;3.40;2.50;;;10.20;99.90;;;;;;5022242;28;20025;-90
2024/03/10 06:42:39;;;;;;;6.43;2.80;;;10.20;99.90;;;;;;5001833;28;20028;-90
2024/03/10 06:45:05;;;;;;;3.75;2.60;;;10.20;99.90;;;;;;5034001;28;20068;-91
2024/03/10 06:47:31;;;;;;;4.63;2.58;;;10.20;99.90;;;;;;5029523;28;20014;-91
2024/03/10 06:49:57;;;;;;;3.50;2.28;;;10.20;99.90;;;;;;5011914;28;20075;-90
2024/03/10 06:52:22;;;;;;;4.18;2.33;;;10.20;99.90;;;;;;5019367;28;20029;-90
2024/03/10 06:54:48;;;;;;;3.90;2.33;;;10.20;99.90;;;;;;5010473;28;20091;-91
2024/03/10 06:57:13;;;;;;;3.47;2.40;;;10.20;99.90;;;;;;5011874;28;20089;-91
2024/03/10 06:59:41;;;;;;;4.65;2.50;;;10.20;99.90;;;;;;5012019;28;20032;-91
2024/03/10 07:02:11;;;;;;;4.75;2.20;;;10.20;99.90;;;;;;5014589;28;20056;-91
2024/03/10 07:04:38;;;;;;;6.05;3.03;;;10.20;99.90;;;;;;5021380;28;20048;-91
2024/03/10 07:07:04;;;;;;;5.57;2.58;;;10.20;99.90;;;;;;5031266;28;20030;-90
2024/03/10 07:09:30;;;;;;;3.95;2.15;;;10.20;99.90;;;;;;5012943;28;20483;-90
2024/03/10 07:11:57;;;;;;;4.80;2.30;;;10.20;99.90;;;;;;5020864;28;20041;-92
2024/03/10 07:14:22;;;;;;;3.45;2.28;;;10.20;99.90;;;;;;5025587;28;20010;-90
2024/03/10 07:16:49;;;;;;;2.95;2.08;;;10.20;99.90;;;;;;5003089;28;20025;-90
2024/03/10 07:19:17;;;;;;;3.40;2.17;;;10.20;99.90;;;;;;5024804;28;20020;-91
2024/03/10 07:21:44;;;;;;;3.30;2.05;;;10.20;99.90;;;;;;5024631;28;20024;-90
2024/03/10 07:24:09;;;;;;;2.80;1.98;;;10.10;99.90;;;;;;5007378;28;20104;-90
2024/03/10 07:26:35;;;;;;;3.13;2.00;;;10.10;99.90;;;;;;5007077;28;20129;-91
2024/03/10 07:29:01;;;;;;;3.53;2.38;;;10.20;99.90;;;;;;5013711;28;20094;-90
2024/03/10 07:31:27;;;;;;;5.28;2.63;;;10.10;99.90;;;;;;5007355;28;20479;-91
2024/03/10 07:33:53;;;;;;;6.53;2.58;;;10.20;99.90;;;;;;5016531;28;20026;-92
2024/03/10 07:36:20;;;;;;;3.55;2.28;;;10.20;99.90;;;;;;5023427;28;20026;-91
2024/03/10 07:38:46;;;;;;;4.90;2.35;;;10.20;99.90;;;;;;5027353;28;20022;-91
2024/03/10 07:41:12;;;;;;;3.50;2.38;;;10.20;99.90;;;;;;5006135;28;20028;-89
2024/03/10 07:43:37;;;;;;;3.63;2.30;;;10.20;99.90;;;;;;5017091;28;20021;-91
2024/03/10 07:46:05;;;;;;;4.10;2.10;;;10.20;99.90;;;;;;5029288;28;20455;-90
2024/03/10 07:48:32;;;;;;;5.18;2.35;;;10.20;99.90;;;;;;5037510;28;20018;-89
2024/03/10 07:50:58;;;;;;;4.07;2.20;;;10.20;99.90;;;;;;5020109;28;20048;-90
2024/03/10 07:53:23;;;;;;;4.35;2.15;;;10.20;99.90;;;;;;5009558;28;20479;-91
2024/03/10 07:55:49;;;;;;;2.67;1.90;;;10.20;99.90;;;;;;5003796;28;20071;-91
2024/03/10 07:58:15;;;;;;;3.15;2.05;;;10.20;99.90;;;;;;5015507;28;20103;-90
2024/03/10 08:00:42;;;;;;;2.50;1.77;;;10.30;99.90;;;;;;5016600;28;20069;-91
2024/03/10 08:03:09;;;;;;;5.85;2.33;;;10.30;99.90;;;;;;5027394;28;20036;-91
2024/03/10 08:05:34;;;;;;;3.83;1.88;;;10.60;99.90;;;;;;5013874;28;20380;-91
2024/03/10 08:08:01;;;;;;;2.78;2.08;;;10.60;99.90;;;;;;5019926;28;20116;-90
2024/03/10 08:10:27;;;;;;;2.08;1.55;;;10.50;99.90;;;;;;5026905;28;20022;-92
2024/03/10 08:12:55;;;;;;;6.18;2.38;;;10.60;99.90;;;;;;5000182;28;20026;-91
2024/03/10 08:15:21;;;;;;;10.85;2.42;;;10.60;99.90;;;;;;5002272;28;20031;-91
2024/03/10 08:17:47;;;;;;;2.22;1.77;;;10.60;99.90;;;;;;5020424;28;20077;-90
2024/03/10 08:20:14;;;;;;;4.63;2.25;;;10.60;99.90;;;;;;4997603;28;20026;-91
2024/03/10 08:22:41;;;;;;;4.18;2.03;;;10.60;99.90;;;;;;5003018;28;20034;-91
2024/03/10 08:25:08;;;;;;;3.50;2.40;;;10.50;99.90;;;;;;5011001;28;20113;-90
2024/03/10 08:27:33;;;;;;;3.95;2.03;;;10.50;99.90;;;;;;5012528;28;20099;-90
2024/03/10 08:29:59;;;;;;;4.80;2.15;;;10.50;99.90;;;;;;5011075;28;20475;-90
2024/03/10 08:32:26;;;;;;;4.47;2.53;;;10.40;99.90;;;;;;5024042;28;20024;-91
2024/03/10 08:34:53;;;;;;;1.92;1.52;;;10.40;99.90;;;;;;5030639;28;20143;-91
2024/03/10 08:37:22;;;;;;;2.65;2.03;;;10.40;99.90;;;;;;5009458;28;20025;-89
2024/03/10 08:39:48;;;;;;;2.55;2.08;;;10.40;99.90;;;;;;5001659;28;20022;-89
2024/03/10 08:42:20;;;;;;;4.43;2.38;;;10.40;99.90;;;;;;5007843;28;20022;-90
2024/03/10 08:44:46;;;;;;;3.75;1.80;;;10.40;99.90;;;;;;5009610;28;20022;-90
2024/03/10 08:47:12;;;;;;;3.58;2.20;;;10.40;99.90;;;;;;5031031;28;20510;-91
2024/03/10 08:49:38;;;;;;;5.65;2.60;;;10.40;99.90;;;;;;5010315;28;20060;-91
2024/03/10 08:52:07;;;;;;;2.78;1.77;;;10.40;99.90;;;;;;5009107;28;20032;-91
2024/03/10 08:54:36;;;;;;;3.13;2.15;;;10.30;99.90;;;;;;5022231;28;20018;-91
2024/03/10 08:57:04;;;;;;;6.55;2.50;;;10.30;99.90;;;;;;5043396;28;20021;-90
2024/03/10 08:59:30;;;;;;;3.80;2.33;;;10.30;99.90;;;;;;5007508;28;20040;-90
2024/03/10 09:01:56;;;;;;;3.33;2.00;;;10.30;99.90;;;;;;5022782;28;20492;-90
2024/03/10 09:04:23;;;;;;;2.45;1.98;;;10.30;99.90;;;;;;4997584;28;20080;-91
2024/03/10 09:06:49;;;;;;;3.75;2.30;;;10.30;99.90;;;;;;5008602;28;20034;-91
2024/03/10 09:09:18;;;;;;;6.75;2.00;;;10.30;99.90;;;;;;5014108;28;20040;-91
2024/03/10 09:11:45;;;;;;;3.37;2.27;;;10.30;99.90;;;;;;5024363;28;20045;-91
2024/03/10 09:14:10;;;;;;;4.15;2.05;;;10.30;99.90;;;;;;5026255;28;20026;-89
2024/03/10 09:16:36;;;;;;;2.80;1.80;;;10.30;99.90;;;;;;5012826;28;20029;-91
2024/03/10 09:19:05;;;;;;;2.78;1.90;;;10.30;99.90;;;;;;5001118;28;20060;-91
2024/03/10 09:21:33;;;;;;;3.40;2.10;;;10.40;99.90;;;;;;5005675;28;20502;-89
2024/03/10 09:24:03;;;;;;;2.45;1.67;;;10.30;99.90;;;;;;5001830;28;20487;-91
2024/03/10 09:26:29;;;;;;;3.92;2.10;;;10.40;99.90;;;;;;5001707;28;20045;-89
2024/03/10 09:28:57;;;;;;;7.00;2.38;;;10.30;99.90;;;;;;5004009;28;20058;-91
2024/03/10 09:31:24;;;;;;;4.43;2.15;;;10.40;99.90;;;;;;5020220;28;20026;-91
2024/03/10 09:33:51;;;;;;;3.38;2.42;;;10.40;99.90;;;;;;5030595;28;20076;-90
2024/03/10 09:36:17;;;;;;;5.68;2.35;;;10.40;99.90;;;;;;5006050;28;20049;-90
2024/03/10 09:38:44;;;;;;;3.53;2.42;;;10.40;99.90;;;;;;5004661;28;20022;-91
2024/03/10 09:41:11;;;;;;;4.13;2.30;;;10.40;99.90;;;;;;5030911;28;20013;-90
2024/03/10 09:43:42;;;;;;;7.38;2.53;;;10.40;99.90;;;;;;5010981;28;20026;-90
2024/03/10 09:46:13;;;;;;;4.00;2.42;;;10.40;99.90;;;;;;5007281;28;20026;-90
2024/03/10 09:48:42;;;;;;;;;;;10.40;99.90;;;;;;5024530;28;20026;-90
2024/03/10 09:51:11;;;;;;;2.03;1.67;;;10.40;99.90;;;;;;5004427;28;19909;-90
2024/03/10 09:53:37;;;;;;;3.50;2.20;;;10.40;99.90;;;;;;5011733;28;20018;-91
2024/03/10 09:56:03;;;;;;;2.97;1.90;;;10.40;99.90;;;;;;5009155;28;20747;-90
2024/03/10 09:58:37;;;;;;;3.95;2.45;;;10.50;99.90;;;;;;5016899;28;20032;-91
2024/03/10 10:01:11;;;;;;;5.05;2.45;;;10.50;99.90;;;;;;5010583;28;20021;-93
2024/03/10 10:03:41;;;;;;;7.50;2.72;;;10.50;99.90;;;;;;5034611;28;20289;-93
2024/03/10 10:06:08;;;;;;;;;;;10.50;99.90;;;;;;5010865;28;20026;-92
2024/03/10 10:08:34;;;;;;;2.20;1.92;;;10.50;99.90;;;;;;5005737;28;19905;-92
2024/03/10 10:11:00;;;;;;;4.53;2.35;;;10.50;99.90;;;;;;5026140;28;20033;-92
2024/03/10 10:13:27;;;;;;;2.80;2.00;;;10.50;99.90;;;;;;5018543;28;20088;-91
2024/03/10 10:15:54;;;;;;;3.80;2.10;;;10.50;99.90;;;;;;5026362;28;20030;-88
2024/03/10 10:18:21;;;;;;;5.57;2.00;;;10.50;99.90;;;;;;5014380;28;20025;-92
2024/03/10 10:20:53;;;;;;;1.85;1.65;;;10.50;99.90;;;;;;5010991;28;20025;-91
2024/03/10 10:23:23;;;;;;;3.53;1.80;;;10.50;99.90;;;;;;5010384;28;20022;-92
2024/03/10 10:25:53;;;;;;;6.15;2.40;;;10.50;99.90;;;;;;5020990;28;20550;-88
2024/03/10 10:28:19;;;;;;;3.65;2.33;;;10.50;99.90;;;;;;5034060;28;20116;-89
2024/03/10 10:30:44;;;;;;;4.43;2.60;;;10.50;99.90;;;;;;5010801;28;20120;-91
2024/03/10 10:33:12;;;;;;;5.18;2.50;;;10.60;99.90;;;;;;5011425;28;20025;-92
2024/03/10 10:35:42;;;;;;;3.65;2.00;;;10.60;99.90;;;;;;5001294;28;20030;-92
2024/03/10 10:38:14;;;;;;;8.98;3.08;;;10.60;99.90;;;;;;5031633;28;20104;-92
2024/03/10 10:40:48;;;;;;;4.68;2.78;;;10.60;99.90;;;;;;5002537;28;20022;-91
2024/03/10 10:43:14;;;;;;;4.03;2.03;;;10.60;99.90;;;;;;5002713;28;20030;-92
2024/03/10 10:45:43;;;;;;;5.60;2.42;;;10.60;99.90;;;;;;5015968;28;20037;-92
2024/03/10 10:48:09;;;;;;;5.30;2.30;;;10.60;99.90;;;;;;5004378;28;20030;-88
2024/03/10 10:50:37;;;;;;;5.22;2.33;;;10.60;99.90;;;;;;4999303;28;20033;-92
2024/03/10 10:53:06;;;;;;;4.03;2.13;;;10.70;99.90;;;;;;5019248;28;20073;-92
2024/03/10 10:55:33;;;;;;;3.90;2.33;;;10.70;99.90;;;;;;5005792;28;20018;-91
2024/03/10 10:58:03;;;;;;;7.35;2.80;;;10.80;99.90;;;;;;5018799;28;20742;-92
2024/03/10 11:00:29;;;;;;;;;;;10.70;99.90;;;;;;5012678;28;20491;-92
2024/03/10 11:03:25;;;;;;;4.57;2.42;;;10.70;99.90;;;;;;5009076;28;19913;-92
2024/03/10 11:06:02;;;;;;;4.10;2.30;;;10.70;99.90;;;;;;4924444;29;20035;-91
2024/03/10 11:08:36;;;;;;;7.45;2.20;;;10.60;99.90;;;;;;4925334;29;20522;-92
2024/03/10 11:11:03;;;;;;;6.45;2.10;;;10.60;99.90;;;;;;4922813;29;20083;-91
2024/03/10 11:13:29;;;;;;;4.60;2.35;;;10.60;99.90;;;;;;4908681;29;20137;-93
2024/03/10 11:16:20;;;;;;;4.10;2.05;;;10.60;99.90;;;;;;4918567;29;20119;-92
2024/03/10 11:18:46;;;;;;;3.75;2.13;;;10.60;99.90;;;;;;4920727;29;20790;-91
2024/03/10 11:21:20;;;;;;;3.60;2.20;;;10.60;99.90;;;;;;4908312;29;20021;-92
2024/03/10 11:23:51;;;;;;;4.03;2.42;;;10.60;99.90;;;;;;4924223;29;20044;-92
2024/03/10 11:26:19;;;;;;;3.15;2.05;;;10.60;99.90;;;;;;4910054;29;20090;-92
2024/03/10 11:28:48;;;;;;;4.30;2.30;;;10.60;99.90;;;;;;4926500;29;20031;-89
2024/03/10 11:31:35;;;;;;;5.22;2.08;;;10.70;99.90;;;;;;4925272;29;20042;-90
2024/03/10 11:34:03;;;;;;;3.78;2.20;;;10.70;99.90;;;;;;4903355;29;20040;-90
2024/03/10 11:36:37;;;;;;;4.53;2.30;;;10.70;99.90;;;;;;4914997;29;20782;-91
2024/03/10 11:39:04;;;;;;;5.03;2.20;;;11.00;99.90;;;;;;4903757;29;20024;-90
2024/03/10 11:41:31;;;;;;;4.10;2.17;;;11.30;99.90;;;;;;4922228;28;20025;-90
2024/03/10 11:43:57;;;;;;;3.10;2.10;;;11.50;99.90;;;;;;5009569;28;20515;-92
2024/03/10 11:46:33;;;;;;;3.05;1.75;;;11.60;99.90;;;;;;5016084;28;20029;-90
2024/03/10 11:49:01;;;;;;;3.83;2.10;;;11.60;99.90;;;;;;5009732;28;20036;-91
2024/03/10 11:51:31;;;;;;;3.70;2.20;;;11.50;99.90;;;;;;5007436;28;20565;-91
2024/03/10 11:53:58;;;;;;;4.53;2.00;;;11.50;99.90;;;;;;5003455;28;20044;-90
2024/03/10 11:56:24;;;;;;;3.47;2.00;;;11.40;99.90;;;;;;5009405;28;20014;-91
2024/03/10 11:58:57;;;;;;;4.65;2.10;;;11.40;99.90;;;;;;5028116;28;20037;-92
2024/03/10 12:01:23;;;;;;;5.70;2.30;;;11.40;99.90;;;;;;5004489;28;20040;-91
2024/03/10 12:03:49;;;;;;;4.22;2.25;;;11.40;99.90;;;;;;5012381;28;20025;-91
2024/03/10 12:06:16;;;;;;;3.38;1.98;;;11.30;99.90;;;;;;5010514;28;20109;-91
2024/03/10 12:08:42;;;;;;;2.83;1.77;;;11.30;99.90;;;;;;5004625;28;20030;-90
2024/03/10 12:11:12;;;;;;;6.10;2.25;;;11.20;99.90;;;;;;5032174;28;20040;-91
2024/03/10 12:13:44;;;;;;;4.82;2.35;;;11.10;99.90;;;;;;5016736;28;20033;-90
2024/03/10 12:16:11;;;;;;;5.63;2.42;;;11.10;99.90;;;;;;5033952;28;20499;-91
2024/03/10 12:18:40;;;;;;;3.95;2.20;;;11.00;99.90;;;;;;5004176;28;20384;-88
2024/03/10 12:21:12;;;;;;;3.88;2.42;;;11.00;99.90;;;;;;5002949;28;20022;-92
2024/03/10 12:23:38;;;;;;;5.28;2.33;;;11.00;99.90;;;;;;5007385;28;20037;-91
2024/03/10 12:26:11;;;;;;;4.63;2.42;;;11.00;99.90;;;;;;5035041;28;20575;-90
2024/03/10 12:28:37;;;;;;;4.00;2.40;;;10.90;99.90;;;;;;5025688;28;20396;-90
2024/03/10 12:31:12;;;;;;;5.10;2.78;;;10.90;99.90;;;;;;5007376;28;20029;-91
2024/03/10 12:33:37;;;;;;;3.35;2.45;;;10.90;99.90;;;;;;5007798;28;20022;-88
2024/03/10 12:36:06;;;;;;;4.30;2.20;;;10.90;99.90;;;;;;5029183;28;20079;-90
2024/03/10 12:38:32;;;;;;;3.67;2.17;;;10.90;99.90;;;;;;5017940;28;20018;-88
2024/03/10 12:40:58;;;;;;;3.17;2.35;;;10.90;99.90;;;;;;5010992;28;20030;-91
2024/03/10 12:43:23;;;;;;;4.85;2.63;;;10.90;99.90;;;;;;5006702;28;20036;-89
2024/03/10 12:45:49;;;;;;;5.80;2.75;;;10.90;99.90;;;;;;5011242;28;20395;-90
2024/03/10 12:48:15;;;;;;;7.05;1.88;;;10.90;99.90;;;;;;5012052;28;20065;-89
2024/03/10 12:50:41;;;;;;;4.88;2.72;;;10.80;99.90;;;;;;5013897;28;20450;-86
2024/03/10 12:53:06;;;;;;;3.08;2.38;;;10.80;99.90;;;;;;5032542;28;20029;-86
2024/03/10 12:55:34;;;;;;;4.35;2.38;;;10.80;99.90;;;;;;5033787;28;20647;-84
2024/03/10 12:58:00;;;;;;;4.22;2.30;;;10.80;99.90;;;;;;5028023;28;20017;-84
2024/03/10 13:00:28;;;;;;;4.57;2.33;;;10.80;99.90;;;;;;5026355;28;20487;-85
2024/03/10 13:02:56;;;;;;;3.47;2.45;;;10.70;99.90;;;;;;5006051;28;20123;-85
2024/03/10 13:05:22;;;;;;;6.82;2.42;;;10.70;99.90;;;;;;5026850;28;20033;-87
2024/03/10 13:07:48;;;;;;;4.25;2.42;;;10.70;99.90;;;;;;5026009;28;20033;-87